createdAt,value
2023-02-17T00:00:15.919Z,94.69
2023-02-17T00:02:24.548Z,94.61
2023-02-17T00:04:43.965Z,94.57
2023-02-17T00:06:50.089Z,94.62
2023-02-17T00:09:04.573Z,94.56
2023-02-17T00:11:19.338Z,94.52
2023-02-17T00:13:30.249Z,94.98
2023-02-17T00:15:37.043Z,95.09
2023-02-17T00:17:42.214Z,95.18
2023-02-17T00:19:49.152Z,95.27
2023-02-17T00:21:57.719Z,95.60
2023-02-17T00:24:12.801Z,95.38
2023-02-17T00:26:23.435Z,95.41
2023-02-17T00:28:28.899Z,95.37
2023-02-17T00:30:37.993Z,95.28
2023-02-17T00:32:43.117Z,95.77
2023-02-17T00:34:53.175Z,95.74
2023-02-17T00:37:01.907Z,95.98
2023-02-17T00:39:11.727Z,95.81
2023-02-17T00:41:20.474Z,95.77
2023-02-17T00:43:25.483Z,96.05
2023-02-17T00:45:33.639Z,96.14
2023-02-17T00:47:41.004Z,96.04
2023-02-17T00:49:48.581Z,96.39
2023-02-17T00:51:58.571Z,96.75
2023-02-17T00:54:04.318Z,96.82
2023-02-17T00:56:13.394Z,96.64
2023-02-17T00:58:28.319Z,96.84
2023-02-17T01:00:33.944Z,96.63
2023-02-17T01:02:40.913Z,96.57
2023-02-17T01:04:47.321Z,96.22
2023-02-17T01:06:53.020Z,96.56
2023-02-17T01:08:58.750Z,96.33
2023-02-17T01:11:08.326Z,96.64
2023-02-17T01:13:26.953Z,96.55
2023-02-17T01:18:51.618Z,96.75
2023-02-17T01:21:00.174Z,96.43
2023-02-17T01:23:26.794Z,96.41
2023-02-17T01:26:29.343Z,96.52
2023-02-17T01:28:51.638Z,96.24
2023-02-17T01:30:58.985Z,96.15
2023-02-17T01:33:06.038Z,96.19
2023-02-17T01:35:12.329Z,95.96
2023-02-17T01:37:17.719Z,95.93
2023-02-17T01:39:25.896Z,96.10
2023-02-17T01:41:37.076Z,95.85
2023-02-17T01:44:02.425Z,95.38
2023-02-17T01:46:13.743Z,95.29
2023-02-17T01:48:21.643Z,95.54
2023-02-17T01:50:33.124Z,95.53
2023-02-17T01:56:12.449Z,95.14
2023-02-17T02:01:48.368Z,95.14
2023-02-17T02:06:56.659Z,95.38
2023-02-17T02:09:30.410Z,95.31
2023-02-17T02:11:38.451Z,95.52
2023-02-17T02:13:47.649Z,95.30
2023-02-17T02:16:03.024Z,95.64
2023-02-17T02:18:31.512Z,95.63
2023-02-17T02:21:01.892Z,95.73
2023-02-17T02:23:38.022Z,95.32
2023-02-17T02:26:13.891Z,95.40
2023-02-17T02:28:37.965Z,95.96
2023-02-17T02:31:25.427Z,96.06
2023-02-17T02:33:47.831Z,96.15
2023-02-17T02:36:00.689Z,95.96
2023-02-17T02:38:10.198Z,96.10
2023-02-17T02:40:27.877Z,96.19
2023-02-17T02:42:33.820Z,96.12
2023-02-17T02:44:43.337Z,96.24
2023-02-17T02:46:58.977Z,96.18
2023-02-17T02:49:08.364Z,96.01
2023-02-17T02:51:44.964Z,96.20
2023-02-17T02:54:18.601Z,96.24
2023-02-17T02:56:59.844Z,96.17
2023-02-17T02:59:50.300Z,96.19
2023-02-17T03:02:26.205Z,96.25
2023-02-17T03:04:57.788Z,96.27
2023-02-17T03:07:15.239Z,96.45
2023-02-17T03:09:25.844Z,96.13
2023-02-17T03:11:35.171Z,96.10
2023-02-17T03:13:42.823Z,96.03
2023-02-17T03:15:56.707Z,95.72
2023-02-17T03:18:04.932Z,95.69
2023-02-17T03:20:20.319Z,95.46
2023-02-17T03:22:31.279Z,95.75
2023-02-17T03:24:50.429Z,95.54
2023-02-17T03:27:02.165Z,95.56
2023-02-17T03:29:14.850Z,95.42
2023-02-17T03:31:26.021Z,95.41
2023-02-17T03:33:48.559Z,95.02
2023-02-17T03:36:05.221Z,94.93
2023-02-17T03:38:20.008Z,94.88
2023-02-17T03:40:28.224Z,94.84
2023-02-17T03:42:47.629Z,94.52
2023-02-17T03:45:08.640Z,94.64
2023-02-17T03:47:16.601Z,94.69
2023-02-17T03:49:38.749Z,94.40
2023-02-17T03:52:05.052Z,94.34
2023-02-17T03:54:46.464Z,94.51
2023-02-17T03:57:04.026Z,94.53
2023-02-17T03:59:17.228Z,94.49
2023-02-17T04:01:22.234Z,94.39
2023-02-17T04:03:27.284Z,94.73
2023-02-17T04:05:32.527Z,94.48
2023-02-17T04:07:40.796Z,94.80
2023-02-17T04:10:03.892Z,94.75
2023-02-17T04:12:41.276Z,94.35
2023-02-17T04:14:54.270Z,94.76
2023-02-17T04:17:00.974Z,94.82
2023-02-17T04:19:21.207Z,94.77
2023-02-17T04:21:32.702Z,94.79
2023-02-17T04:23:57.918Z,94.60
2023-02-17T04:26:27.098Z,94.55
2023-02-17T04:28:40.030Z,94.73
2023-02-17T04:30:48.009Z,94.91
2023-02-17T04:32:58.184Z,94.64
2023-02-17T04:35:03.158Z,94.55
2023-02-17T04:37:11.350Z,94.60
2023-02-17T04:39:21.780Z,94.63
2023-02-17T04:41:29.291Z,94.81
2023-02-17T04:43:35.231Z,94.78
2023-02-17T04:45:41.084Z,95.20
2023-02-17T04:47:46.217Z,95.17
2023-02-17T04:49:53.638Z,94.93
2023-02-17T04:52:06.104Z,94.86
2023-02-17T04:54:11.120Z,95.09
2023-02-17T04:56:30.587Z,94.93
2023-02-17T04:58:38.403Z,95.00
2023-02-17T05:00:49.740Z,95.22
2023-02-17T05:02:58.553Z,95.15
2023-02-17T05:05:04.332Z,95.46
2023-02-17T05:07:30.952Z,95.45
2023-02-17T05:09:37.158Z,95.55
2023-02-17T05:11:57.279Z,95.63
2023-02-17T05:14:03.566Z,95.35
2023-02-17T05:16:09.609Z,95.37
2023-02-17T05:18:15.508Z,95.51
2023-02-17T05:20:22.000Z,96.05
2023-02-17T05:22:30.582Z,95.92
2023-02-17T05:24:38.569Z,96.24
2023-02-17T05:26:49.808Z,96.12
2023-02-17T05:28:59.140Z,96.29
2023-02-17T05:31:08.567Z,96.32
2023-02-17T05:33:26.695Z,96.02
2023-02-17T05:35:40.915Z,96.43
2023-02-17T05:37:46.708Z,95.94
2023-02-17T05:39:52.312Z,96.31
2023-02-17T05:42:06.944Z,96.20
2023-02-17T05:44:15.196Z,96.27
2023-02-17T05:46:24.753Z,96.31
2023-02-17T05:48:39.965Z,96.42
2023-02-17T05:50:52.394Z,96.26
2023-02-17T05:52:59.005Z,96.34
2023-02-17T05:55:05.089Z,96.14
2023-02-17T05:57:13.218Z,96.22
2023-02-17T05:59:36.793Z,96.35
2023-02-17T06:01:55.573Z,96.33
2023-02-17T06:04:04.093Z,96.00
2023-02-17T06:06:26.903Z,96.23
2023-02-17T06:16:17.196Z,95.59
2023-02-17T06:19:14.843Z,95.52
2023-02-17T06:21:21.113Z,94.95
2023-02-17T06:24:32.182Z,94.83
2023-02-17T06:26:37.945Z,94.95
2023-02-17T06:28:42.899Z,95.17
2023-02-17T06:31:45.326Z,94.91
2023-02-17T06:34:35.775Z,95.05
2023-02-17T06:37:23.299Z,95.05
2023-02-17T06:40:02.190Z,94.73
2023-02-17T06:42:31.867Z,94.73
2023-02-17T06:44:55.816Z,94.79
2023-02-17T06:47:27.252Z,94.91
2023-02-17T06:49:49.110Z,95.00
2023-02-17T06:51:54.070Z,94.77
2023-02-17T06:54:25.142Z,94.71
2023-02-17T06:56:37.416Z,94.49
2023-02-17T06:59:19.758Z,94.35
2023-02-17T07:01:54.578Z,94.31
2023-02-17T07:04:03.134Z,93.98
2023-02-17T07:06:11.805Z,93.75
2023-02-17T07:08:16.769Z,93.52
2023-02-17T07:10:24.916Z,93.91
2023-02-17T07:12:31.927Z,93.73
2023-02-17T07:14:41.516Z,94.00
2023-02-17T07:17:17.813Z,93.88
2023-02-17T07:19:37.588Z,93.84
2023-02-17T07:21:42.405Z,93.76
2023-02-17T07:23:51.201Z,93.99
2023-02-17T07:25:56.795Z,94.12
2023-02-17T07:28:03.129Z,93.94
2023-02-17T07:30:12.077Z,94.23
2023-02-17T07:32:17.046Z,94.42
2023-02-17T07:34:22.345Z,94.24
2023-02-17T07:36:32.281Z,94.50
2023-02-17T07:38:37.434Z,94.53
2023-02-17T07:40:42.748Z,94.73
2023-02-17T07:43:01.009Z,94.45
2023-02-17T07:45:07.364Z,94.59
2023-02-17T07:47:12.361Z,94.37
2023-02-17T07:49:17.996Z,94.41
2023-02-17T07:51:24.725Z,94.35
2023-02-17T07:53:32.306Z,94.44
2023-02-17T07:55:37.399Z,94.56
2023-02-17T07:57:42.471Z,94.47
2023-02-17T07:59:49.920Z,94.34
2023-02-17T08:01:54.939Z,94.55
2023-02-17T08:04:00.630Z,94.47
2023-02-17T08:06:06.697Z,94.27
2023-02-17T08:08:24.114Z,94.23
2023-02-17T08:10:44.387Z,94.29
2023-02-17T08:13:02.106Z,94.62
2023-02-17T08:15:08.030Z,94.44
2023-02-17T08:17:14.465Z,94.21
2023-02-17T08:19:19.936Z,93.86
2023-02-17T08:21:25.117Z,94.06
2023-02-17T08:23:30.581Z,94.13
2023-02-17T08:25:39.767Z,94.13
2023-02-17T08:27:48.750Z,93.67
2023-02-17T08:29:55.593Z,93.94
2023-02-17T08:32:00.903Z,93.87
2023-02-17T08:34:08.743Z,93.69
2023-02-17T08:36:16.010Z,93.30
2023-02-17T08:38:20.932Z,93.34
2023-02-17T08:40:27.185Z,93.51
2023-02-17T08:42:38.271Z,93.20
2023-02-17T08:44:43.058Z,93.14
2023-02-17T08:46:50.118Z,93.17
2023-02-17T08:48:56.570Z,93.09
2023-02-17T08:51:01.593Z,92.53
2023-02-17T08:53:06.676Z,92.44
2023-02-17T08:55:11.858Z,92.46
2023-02-17T08:57:16.831Z,92.22
2023-02-17T08:59:24.559Z,92.41
2023-02-17T09:01:29.624Z,92.47
2023-02-17T09:03:37.962Z,92.51
2023-02-17T09:05:43.169Z,92.58
2023-02-17T09:07:49.693Z,92.72
2023-02-17T09:09:54.643Z,92.98
2023-02-17T09:12:01.039Z,92.69
2023-02-17T09:14:06.187Z,92.63
2023-02-17T09:16:14.987Z,92.74
2023-02-17T09:18:20.345Z,92.74
2023-02-17T09:20:25.660Z,92.57
2023-02-17T09:22:32.487Z,92.55
2023-02-17T09:24:38.903Z,92.56
2023-02-17T09:26:44.765Z,92.42
2023-02-17T09:28:53.295Z,92.21
2023-02-17T09:30:58.513Z,92.43
2023-02-17T09:33:17.673Z,92.29
2023-02-17T09:35:22.710Z,92.76
2023-02-17T09:37:27.835Z,92.43
2023-02-17T09:39:32.832Z,92.50
2023-02-17T09:41:42.328Z,92.54
2023-02-17T09:43:51.584Z,92.55
2023-02-17T09:46:02.750Z,91.92
2023-02-17T09:48:11.945Z,91.90
2023-02-17T09:50:23.667Z,91.32
2023-02-17T09:52:34.016Z,91.28
2023-02-17T09:54:50.338Z,91.08
2023-02-17T09:56:57.709Z,91.05
2023-02-17T09:59:07.429Z,90.85
2023-02-17T10:01:19.610Z,90.54
2023-02-17T10:03:31.232Z,90.66
2023-02-17T10:05:51.660Z,90.58
2023-02-17T10:08:01.689Z,90.60
2023-02-17T10:10:11.175Z,90.79
2023-02-17T10:12:20.736Z,90.33
2023-02-17T10:14:31.829Z,90.60
2023-02-17T10:16:44.632Z,90.54
2023-02-17T10:18:56.620Z,90.65
2023-02-17T10:21:07.965Z,90.30
2023-02-17T10:23:19.408Z,90.39
2023-02-17T10:25:36.685Z,90.19
2023-02-17T10:27:48.520Z,90.33
2023-02-17T10:30:07.709Z,90.17
2023-02-17T10:32:25.303Z,89.97
2023-02-17T10:34:41.709Z,89.64
2023-02-17T10:36:56.847Z,89.76
2023-02-17T10:39:09.442Z,89.64
2023-02-17T10:41:19.301Z,89.81
2023-02-17T10:43:30.278Z,89.76
2023-02-17T10:45:41.017Z,89.44
2023-02-17T10:47:46.478Z,89.75
2023-02-17T10:49:54.636Z,89.59
2023-02-17T10:52:04.974Z,89.78
2023-02-17T10:54:19.121Z,89.52
2023-02-17T10:56:28.980Z,89.77
2023-02-17T10:58:39.487Z,89.57
2023-02-17T11:00:48.375Z,89.60
2023-02-17T11:02:54.605Z,89.32
2023-02-17T11:05:00.109Z,89.49
2023-02-17T11:07:18.468Z,89.48
2023-02-17T11:09:28.948Z,89.78
2023-02-17T11:11:37.320Z,89.50
2023-02-17T11:13:46.734Z,89.68
2023-02-17T11:15:51.751Z,89.63
2023-02-17T11:17:57.652Z,89.71
2023-02-17T11:20:04.946Z,89.56
2023-02-17T11:22:36.230Z,89.35
2023-02-17T11:24:41.790Z,89.31
2023-02-17T11:26:46.980Z,89.27
2023-02-17T11:28:53.902Z,89.05
2023-02-17T11:31:02.870Z,89.66
2023-02-17T11:33:16.552Z,89.29
2023-02-17T11:35:27.880Z,89.18
2023-02-17T11:37:37.045Z,89.07
2023-02-17T11:39:47.413Z,88.96
2023-02-17T11:41:52.843Z,89.17
2023-02-17T11:44:00.192Z,89.21
2023-02-17T11:46:16.455Z,88.94
2023-02-17T11:48:42.114Z,88.83
2023-02-17T11:50:56.910Z,88.81
2023-02-17T11:53:18.419Z,88.67
2023-02-17T11:55:26.658Z,88.76
2023-02-17T11:57:45.463Z,88.59
2023-02-17T12:00:06.009Z,88.12
2023-02-17T12:02:28.794Z,88.04
2023-02-17T12:04:34.966Z,88.02
2023-02-17T12:06:50.018Z,87.58
2023-02-17T12:09:15.777Z,87.34
2023-02-17T12:11:31.952Z,87.64
2023-02-17T12:13:50.499Z,87.36
2023-02-17T12:16:11.155Z,87.37
2023-02-17T12:18:32.835Z,86.97
2023-02-17T12:20:49.984Z,86.99
2023-02-17T12:23:09.729Z,86.61
2023-02-17T12:25:31.156Z,86.80
2023-02-17T12:27:49.608Z,86.27
2023-02-17T12:30:07.916Z,86.57
2023-02-17T12:32:26.362Z,86.79
2023-02-17T12:34:37.115Z,87.11
2023-02-17T12:36:49.236Z,86.56
2023-02-17T12:38:59.602Z,86.36
2023-02-17T12:41:13.562Z,86.64
2023-02-17T12:43:33.963Z,86.35
2023-02-17T12:45:48.141Z,86.54
2023-02-17T12:47:57.597Z,86.36
2023-02-17T12:50:09.408Z,86.61
2023-02-17T12:52:19.585Z,86.67
2023-02-17T12:54:33.487Z,86.73
2023-02-17T12:56:55.341Z,87.02
2023-02-17T12:59:07.308Z,87.07
2023-02-17T13:01:22.185Z,86.85
2023-02-17T13:03:27.840Z,86.91
2023-02-17T13:05:38.679Z,86.85
2023-02-17T13:07:50.667Z,87.19
2023-02-17T13:09:58.607Z,87.03
2023-02-17T13:12:44.512Z,86.82
2023-02-17T13:14:54.951Z,86.36
2023-02-17T13:17:02.721Z,86.35
2023-02-17T13:19:11.396Z,86.32
2023-02-17T13:21:35.327Z,86.15
2023-02-17T13:23:42.601Z,86.05
2023-02-17T13:25:49.045Z,85.84
2023-02-17T13:27:58.039Z,85.86
2023-02-17T13:30:03.979Z,85.58
2023-02-17T13:32:11.380Z,85.50
2023-02-17T13:34:31.234Z,85.53
2023-02-17T13:36:40.964Z,85.39
2023-02-17T13:38:57.494Z,85.35
2023-02-17T13:41:04.931Z,85.14
2023-02-17T13:43:19.336Z,85.00
2023-02-17T13:45:29.027Z,85.21
2023-02-17T13:47:39.503Z,85.42
2023-02-17T13:49:50.151Z,85.13
2023-02-17T13:51:55.004Z,85.25
2023-02-17T13:54:00.239Z,84.91
2023-02-17T13:56:08.155Z,85.08
2023-02-17T13:58:17.057Z,85.23
2023-02-17T14:00:26.740Z,85.54
2023-02-17T14:02:36.412Z,85.57
2023-02-17T14:04:44.864Z,85.93
2023-02-17T14:06:52.874Z,85.93
2023-02-17T14:08:57.977Z,85.84
2023-02-17T14:11:09.261Z,86.01
2023-02-17T14:13:17.514Z,85.97
2023-02-17T14:15:25.881Z,85.97
2023-02-17T14:17:33.688Z,85.78
2023-02-17T14:19:46.747Z,85.76
2023-02-17T14:22:04.160Z,86.19
2023-02-17T14:24:11.805Z,85.79
2023-02-17T14:26:29.356Z,85.61
2023-02-17T14:28:37.002Z,85.49
2023-02-17T14:30:42.761Z,85.67
2023-02-17T14:32:49.143Z,85.36
2023-02-17T14:34:54.070Z,85.24
2023-02-17T14:37:09.686Z,85.63
2023-02-17T14:39:18.990Z,85.57
2023-02-17T14:41:23.954Z,85.61
2023-02-17T14:43:28.866Z,85.55
2023-02-17T14:45:36.620Z,85.45
2023-02-17T14:47:41.688Z,85.15
2023-02-17T14:49:49.028Z,85.03
2023-02-17T14:51:53.884Z,85.35
2023-02-17T14:53:59.016Z,85.16
2023-02-17T14:56:09.578Z,85.18
2023-02-17T14:58:22.074Z,85.18
2023-02-17T15:00:27.899Z,85.02
2023-02-17T15:02:37.582Z,85.31
2023-02-17T15:04:45.682Z,85.19
2023-02-17T15:06:54.766Z,85.19
2023-02-17T15:09:00.218Z,84.51
2023-02-17T15:11:05.667Z,84.45
2023-02-17T15:13:16.293Z,84.62
2023-02-17T15:15:21.858Z,84.48
2023-02-17T15:17:26.737Z,84.33
2023-02-17T15:19:34.674Z,84.36
2023-02-17T15:21:41.969Z,84.31
2023-02-17T15:23:46.886Z,84.12
2023-02-17T15:25:53.784Z,84.52
2023-02-17T15:27:58.830Z,84.61
2023-02-17T15:30:03.856Z,84.78
2023-02-17T15:32:19.098Z,84.71
2023-02-17T15:34:27.901Z,84.95
2023-02-17T15:36:37.136Z,85.15
2023-02-17T15:38:42.084Z,85.18
2023-02-17T15:40:47.911Z,85.32
2023-02-17T15:42:56.673Z,85.64
2023-02-17T15:45:01.963Z,85.76
2023-02-17T15:47:07.300Z,85.68
2023-02-17T15:49:14.422Z,86.17
2023-02-17T15:51:23.655Z,85.88
2023-02-17T15:53:33.405Z,86.20
2023-02-17T15:55:39.297Z,86.63
2023-02-17T15:57:49.668Z,86.61
2023-02-17T15:59:56.151Z,86.73
2023-02-17T16:02:02.503Z,86.89
2023-02-17T16:04:07.513Z,86.92
2023-02-17T16:06:12.482Z,87.24
2023-02-17T16:08:17.295Z,86.95
2023-02-17T16:10:27.359Z,87.26
2023-02-17T16:12:32.450Z,87.47
2023-02-17T16:14:44.258Z,87.33
2023-02-17T16:16:51.604Z,87.77
2023-02-17T16:18:59.123Z,87.90
2023-02-17T16:21:04.056Z,88.18
2023-02-17T16:23:46.967Z,87.92
2023-02-17T16:25:59.291Z,87.95
2023-02-17T16:28:04.422Z,88.30
2023-02-17T16:30:24.826Z,88.67
2023-02-17T16:32:30.756Z,88.35
2023-02-17T16:34:36.484Z,88.71
2023-02-17T16:36:41.793Z,88.51
2023-02-17T16:38:48.212Z,88.82
2023-02-17T16:40:56.447Z,88.75
2023-02-17T16:43:01.564Z,88.97
2023-02-17T16:45:07.402Z,89.17
2023-02-17T16:47:22.660Z,89.19
2023-02-17T16:49:32.769Z,89.20
2023-02-17T16:51:37.658Z,89.46
2023-02-17T16:53:42.905Z,89.40
2023-02-17T16:55:49.112Z,89.33
2023-02-17T16:57:56.748Z,89.38
2023-02-17T17:00:01.938Z,89.47
2023-02-17T17:02:08.139Z,89.33
2023-02-17T17:04:12.979Z,89.52
2023-02-17T17:06:25.386Z,89.59
2023-02-17T17:08:30.290Z,89.57
2023-02-17T17:10:40.158Z,89.77
2023-02-17T17:12:46.511Z,89.56
2023-02-17T17:14:54.149Z,89.47
2023-02-17T17:17:03.796Z,89.61
2023-02-17T17:19:09.136Z,89.62
2023-02-17T17:21:15.650Z,89.82
2023-02-17T17:23:20.612Z,89.51
2023-02-17T17:25:25.682Z,89.90
2023-02-17T17:27:30.516Z,89.92
2023-02-17T17:29:36.852Z,89.59
2023-02-17T17:31:45.654Z,89.81
2023-02-17T17:33:51.817Z,89.89
2023-02-17T17:35:56.771Z,89.90
2023-02-17T17:38:01.863Z,90.00
2023-02-17T17:40:07.458Z,89.78
2023-02-17T17:42:13.195Z,90.18
2023-02-17T17:44:22.065Z,90.23
2023-02-17T17:46:33.901Z,89.93
2023-02-17T17:48:45.804Z,90.27
2023-02-17T17:50:52.310Z,90.27
2023-02-17T17:52:59.596Z,90.17
2023-02-17T17:55:04.951Z,90.41
2023-02-17T17:57:09.980Z,90.39
2023-02-17T17:59:16.289Z,90.37
2023-02-17T18:01:24.582Z,90.06
2023-02-17T18:03:29.724Z,90.37
2023-02-17T18:05:39.225Z,90.48
2023-02-17T18:07:47.234Z,90.72
2023-02-17T18:09:52.335Z,90.85
2023-02-17T18:11:58.706Z,90.71
2023-02-17T18:14:08.796Z,90.46
2023-02-17T18:16:15.809Z,90.48
2023-02-17T18:18:21.472Z,90.55
2023-02-17T18:20:26.700Z,90.75
2023-02-17T18:22:34.780Z,90.53
2023-02-17T18:24:43.154Z,90.57
2023-02-17T18:26:47.950Z,90.73
2023-02-17T18:28:52.818Z,90.83
2023-02-17T18:30:59.418Z,90.63
2023-02-17T18:33:04.669Z,90.59
2023-02-17T18:35:10.457Z,90.63
2023-02-17T18:37:17.440Z,90.66
2023-02-17T18:39:24.886Z,90.41
2023-02-17T18:41:31.419Z,90.33
2023-02-17T18:43:36.976Z,90.49
2023-02-17T18:45:41.864Z,90.57
2023-02-17T18:47:53.661Z,90.32
2023-02-17T18:49:58.785Z,90.56
2023-02-17T18:52:04.065Z,90.52
2023-02-17T18:54:14.200Z,90.73
2023-02-17T18:56:23.864Z,90.86
2023-02-17T18:58:30.058Z,91.08
2023-02-17T19:00:35.045Z,91.02
2023-02-17T19:02:40.016Z,90.81
2023-02-17T19:04:47.479Z,91.21
2023-02-17T19:06:53.074Z,90.78
2023-02-17T19:09:01.303Z,90.86
2023-02-17T19:11:08.418Z,90.62
2023-02-17T19:13:19.613Z,90.09
2023-02-17T19:15:24.714Z,90.11
2023-02-17T19:17:29.581Z,90.28
2023-02-17T19:19:34.642Z,90.16
2023-02-17T19:21:39.621Z,89.86
2023-02-17T19:23:45.523Z,90.34
2023-02-17T19:25:50.612Z,90.31
2023-02-17T19:27:55.942Z,89.91
2023-02-17T19:30:03.721Z,89.95
2023-02-17T19:32:09.200Z,90.17
2023-02-17T19:34:16.944Z,90.14
2023-02-17T19:36:23.494Z,90.42
2023-02-17T19:38:29.781Z,90.61
2023-02-17T19:40:36.482Z,90.58
2023-02-17T19:42:42.092Z,90.45
2023-02-17T19:44:47.687Z,90.49
2023-02-17T19:46:56.555Z,90.43
2023-02-17T19:49:01.494Z,90.60
2023-02-17T19:51:09.206Z,90.31
2023-02-17T19:53:14.085Z,90.54
2023-02-17T19:55:21.927Z,90.31
2023-02-17T19:57:26.750Z,90.50
2023-02-17T19:59:31.411Z,90.15
2023-02-17T20:01:37.254Z,90.23
2023-02-17T20:03:45.398Z,90.27
2023-02-17T20:05:50.841Z,90.51
2023-02-17T20:07:57.517Z,90.33
2023-02-17T20:10:02.315Z,90.73
2023-02-17T20:12:07.535Z,90.82
2023-02-17T20:14:12.465Z,90.92
2023-02-17T20:16:19.628Z,90.83
2023-02-17T20:18:24.478Z,90.89
2023-02-17T20:20:32.058Z,90.69
2023-02-17T20:22:36.776Z,90.94
2023-02-17T20:24:42.826Z,90.54
2023-02-17T20:26:51.399Z,90.92
2023-02-17T20:28:56.661Z,90.91
2023-02-17T20:31:04.735Z,90.95
2023-02-17T20:33:09.897Z,91.01
2023-02-17T20:35:16.665Z,90.58
2023-02-17T20:37:24.199Z,90.74
2023-02-17T20:39:29.570Z,91.09
2023-02-17T20:41:34.647Z,90.90
2023-02-17T20:43:41.782Z,91.37
2023-02-17T20:45:51.467Z,91.13
2023-02-17T20:47:56.611Z,91.19
2023-02-17T20:50:09.235Z,91.24
2023-02-17T20:52:15.393Z,91.03
2023-02-17T20:54:24.803Z,91.46
2023-02-17T20:56:36.694Z,91.19
2023-02-17T20:58:41.801Z,91.04
2023-02-17T21:00:47.534Z,91.35
2023-02-17T21:02:53.359Z,91.27
2023-02-17T21:04:58.915Z,91.28
2023-02-17T21:07:03.769Z,91.39
2023-02-17T21:09:11.745Z,91.60
2023-02-17T21:11:19.245Z,91.31
2023-02-17T21:13:25.041Z,91.74
2023-02-17T21:15:31.238Z,91.38
2023-02-17T21:17:37.293Z,91.30
2023-02-17T21:19:42.387Z,91.28
2023-02-17T21:21:47.067Z,91.32
2023-02-17T21:23:52.490Z,91.29
2023-02-17T21:25:57.546Z,91.36
2023-02-17T21:28:05.324Z,91.48
2023-02-17T21:30:12.475Z,91.37
2023-02-17T21:32:17.471Z,91.60
2023-02-17T21:34:22.762Z,91.86
2023-02-17T21:36:29.299Z,91.88
2023-02-17T21:38:34.607Z,91.90
2023-02-17T21:40:39.702Z,91.96
2023-02-17T21:42:58.348Z,91.76
2023-02-17T21:45:08.889Z,91.63
2023-02-17T21:47:15.476Z,91.71
2023-02-17T21:49:23.587Z,91.61
2023-02-17T21:51:28.503Z,91.65
2023-02-17T21:53:33.228Z,91.89
2023-02-17T21:55:38.097Z,91.52
2023-02-17T21:57:42.902Z,91.72
2023-02-17T21:59:47.898Z,91.91
2023-02-17T22:01:56.659Z,91.90
2023-02-17T22:04:02.687Z,91.86
2023-02-17T22:06:16.768Z,92.23
2023-02-17T22:08:24.053Z,92.06
2023-02-17T22:10:28.989Z,92.55
2023-02-17T22:12:33.889Z,92.26
2023-02-17T22:14:40.871Z,92.44
2023-02-17T22:16:47.120Z,92.45
2023-02-17T22:18:55.654Z,92.25
2023-02-17T22:21:00.665Z,92.43
2023-02-17T22:23:05.592Z,92.56
2023-02-17T22:25:10.858Z,92.52
2023-02-17T22:27:18.448Z,92.07
2023-02-17T22:29:23.656Z,92.21
2023-02-17T22:31:31.130Z,92.52
2023-02-17T22:33:37.424Z,92.43
2023-02-17T22:35:45.029Z,92.56
2023-02-17T22:37:49.884Z,92.41
2023-02-17T22:39:56.837Z,92.26
2023-02-17T22:42:04.093Z,92.14
2023-02-17T22:44:10.541Z,92.24
2023-02-17T22:46:18.488Z,92.79
2023-02-17T22:48:23.475Z,92.53
2023-02-17T22:50:28.434Z,92.74
2023-02-17T22:52:37.123Z,92.49
2023-02-17T22:54:41.850Z,93.07
2023-02-17T22:56:46.834Z,92.73
2023-02-17T22:58:55.966Z,92.86
2023-02-17T23:01:06.703Z,92.82
2023-02-17T23:03:11.491Z,92.93
2023-02-17T23:05:16.368Z,92.97
2023-02-17T23:07:21.365Z,93.15
2023-02-17T23:09:28.972Z,93.19
2023-02-17T23:11:47.929Z,92.87
2023-02-17T23:13:52.796Z,93.18
2023-02-17T23:15:57.638Z,93.32
2023-02-17T23:18:02.653Z,93.67
2023-02-17T23:20:08.228Z,93.42
2023-02-17T23:22:16.367Z,93.74
2023-02-17T23:24:22.514Z,93.73
2023-02-17T23:26:29.944Z,94.10
2023-02-17T23:28:37.622Z,93.77
2023-02-17T23:30:43.757Z,94.35
2023-02-17T23:32:48.994Z,94.72
2023-02-17T23:34:53.954Z,94.45
2023-02-17T23:36:59.383Z,94.87
2023-02-17T23:39:04.509Z,94.21
2023-02-17T23:41:13.267Z,94.76
2023-02-17T23:43:22.570Z,94.83
2023-02-17T23:45:27.714Z,95.01
2023-02-17T23:47:32.744Z,94.96
2023-02-17T23:49:40.379Z,95.06
2023-02-17T23:51:46.882Z,95.21
2023-02-17T23:53:52.762Z,95.14
2023-02-17T23:56:05.763Z,95.13
2023-02-17T23:58:10.702Z,94.89
